PWSweather.com
Personal Weather Stations
Station Observations
KVAGLENALL
West Henrico, Glen Allen, VA 23060-6503

West HenricoGlen Allen, VA 23060-6503

Lat: 37.6554, Lon: -77.5693

Elevation: 273

Station Type: Davis Vantage Pro II

www.glenallenweather.com

High Low Average
Temperature 87.9°F31.1°C 66.3°F19.1°C 78.1°F25.6°C
Dew Point 73.4°F23.0°C 57.2°F14.0°C 68.1°F20.1°C
Winds 14.0 mph 22.5 kmh 2.0 mph 3.2 kmh 6.0 mph SSW9.7 kmh SSW
Wind Gusts 16.2 mph26.1 kmh 7.1 mph11.4 kmh 10.0 mph16.1 kmh
Humidity 85% 61% 72%
Pressure 30.03 in1016.9 mb 29.88 in1011.9 mb -
Precipitation 0.00 in0.0 mm - -
Hour Temp Dew Point Humidity Winds Wind Gusts Pressure Precip Precip Rate Daily Precip Total
12:00 AM 71.4°F21.9°C 57.2°F14.0°C 61% 6.0 mph SW9.7 kmh SW 7.1 mph11.4 kmh 30.03 in1016.9 mb 0.00 in0.0 mm 0.00 in0.0 mm 0.00 in0.0 mm
01:00 AM 69.8°F21.0°C 59.1°F15.1°C 69% 6.0 mph SW9.7 kmh SW 10.1 mph16.3 kmh 30.01 in1016.3 mb 0.00 in0.0 mm 0.00 in0.0 mm 0.00 in0.0 mm
02:00 AM 68.5°F20.3°C 60.7°F15.9°C 76% 8.0 mph S12.9 kmh S 13.1 mph21.1 kmh 30.00 in1015.9 mb 0.00 in0.0 mm 0.00 in0.0 mm 0.00 in0.0 mm
03:00 AM 67.5°F19.7°C 60.8°F16.0°C 79% 5.0 mph SW8.0 kmh SW 9.1 mph14.6 kmh 29.98 in1015.2 mb 0.00 in0.0 mm 0.00 in0.0 mm 0.00 in0.0 mm
04:00 AM 67.1°F19.5°C 61.5°F16.4°C 82% 4.0 mph SW6.4 kmh SW 12.1 mph19.5 kmh 29.98 in1015.2 mb 0.00 in0.0 mm 0.00 in0.0 mm 0.00 in0.0 mm
05:00 AM 66.3°F19.1°C 61.7°F16.5°C 85% 3.0 mph SW4.8 kmh SW 7.1 mph11.4 kmh 29.98 in1015.2 mb 0.00 in0.0 mm 0.00 in0.0 mm 0.00 in0.0 mm
06:00 AM 67.2°F19.6°C 62.2°F16.8°C 84% 5.0 mph SSE8.0 kmh SSE 11.1 mph17.9 kmh 29.98 in1015.2 mb 0.00 in0.0 mm 0.00 in0.0 mm 0.00 in0.0 mm
07:00 AM 69.9°F21.1°C 64.1°F17.8°C 82% 6.0 mph S9.7 kmh S 11.1 mph17.9 kmh 29.97 in1014.9 mb 0.00 in0.0 mm 0.00 in0.0 mm 0.00 in0.0 mm
08:00 AM 75.4°F24.1°C 66.5°F19.2°C 74% 7.0 mph SW11.3 kmh SW 12.1 mph19.5 kmh 29.97 in1014.9 mb 0.00 in0.0 mm 0.00 in0.0 mm 0.00 in0.0 mm
09:00 AM 80.1°F26.7°C 67.7°F19.8°C 66% 9.0 mph SW14.5 kmh SW 13.1 mph21.1 kmh 29.97 in1014.9 mb 0.00 in0.0 mm 0.00 in0.0 mm 0.00 in0.0 mm
10:00 AM 82.5°F28.1°C 69.1°F20.6°C 64% 9.0 mph SW14.5 kmh SW 16.2 mph26.1 kmh 29.96 in1014.6 mb 0.00 in0.0 mm 0.00 in0.0 mm 0.00 in0.0 mm
11:00 AM 84.3°F29.1°C 70.8°F21.6°C 64% 5.0 mph SW8.0 kmh SW 7.1 mph11.4 kmh 29.95 in1014.2 mb 0.00 in0.0 mm 0.00 in0.0 mm 0.00 in0.0 mm
12:00 PM 84.1°F28.9°C 71.5°F21.9°C 66% 6.0 mph S9.7 kmh S 8.1 mph13.0 kmh 29.94 in1013.9 mb 0.00 in0.0 mm 0.00 in0.0 mm 0.00 in0.0 mm
01:00 PM 84.8°F29.3°C 72.7°F22.6°C 67% 2.0 mph S3.2 kmh S 9.1 mph14.6 kmh 29.92 in1013.2 mb 0.00 in0.0 mm 0.00 in0.0 mm 0.00 in0.0 mm
02:00 PM 86.7°F30.4°C 73.1°F22.8°C 64% 9.0 mph SSW14.5 kmh SSW 10.1 mph16.3 kmh 29.90 in1012.5 mb 0.00 in0.0 mm 0.00 in0.0 mm 0.00 in0.0 mm
03:00 PM 86.8°F30.4°C 72.7°F22.6°C 63% 14.0 mph S22.5 kmh S 14.1 mph22.7 kmh 29.91 in1012.9 mb 0.00 in0.0 mm 0.00 in0.0 mm 0.00 in0.0 mm
04:00 PM 87.9°F31.1°C 73.3°F22.9°C 62% 6.0 mph SW9.7 kmh SW 10.1 mph16.3 kmh 29.90 in1012.5 mb 0.00 in0.0 mm 0.00 in0.0 mm 0.00 in0.0 mm
05:00 PM 86.0°F30.0°C 73.4°F23.0°C 66% 6.0 mph S9.7 kmh S 9.1 mph14.6 kmh 29.89 in1012.2 mb 0.00 in0.0 mm 0.00 in0.0 mm 0.00 in0.0 mm
06:00 PM 85.1°F29.5°C 73.4°F23.0°C 68% 5.0 mph SSW8.0 kmh SSW 7.1 mph11.4 kmh 29.88 in1011.9 mb 0.00 in0.0 mm 0.00 in0.0 mm 0.00 in0.0 mm
07:00 PM 83.7°F28.7°C 73.3°F22.9°C 71% 7.0 mph S11.3 kmh S 7.1 mph11.4 kmh 29.90 in1012.5 mb 0.00 in0.0 mm 0.00 in0.0 mm 0.00 in0.0 mm
08:00 PM 81.6°F27.6°C 72.9°F22.7°C 75% 6.0 mph SW9.7 kmh SW 9.1 mph14.6 kmh 29.90 in1012.5 mb 0.00 in0.0 mm 0.00 in0.0 mm 0.00 in0.0 mm
09:00 PM 80.3°F26.8°C 72.8°F22.7°C 78% 5.0 mph S8.0 kmh S 16.2 mph26.1 kmh 29.91 in1012.9 mb 0.00 in0.0 mm 0.00 in0.0 mm 0.00 in0.0 mm
10:00 PM 79.6°F26.4°C 72.5°F22.5°C 79% 4.0 mph S6.4 kmh S 12.1 mph19.5 kmh 29.92 in1013.2 mb 0.00 in0.0 mm 0.00 in0.0 mm 0.00 in0.0 mm
11:00 PM 78.6°F25.9°C 71.5°F21.9°C 79% 6.0 mph SSW9.7 kmh SSW 9.1 mph14.6 kmh 29.94 in1013.9 mb 0.00 in0.0 mm 0.00 in0.0 mm 0.00 in0.0 mm